メインページ
METAR-TAF:

METAR-TAF

空港 :

リスト・フェレンツ国際空港

ブダペスト, ハンガリー

緯度: 47-26N, 経度: 019-16E, 海抜: 151m

現時点の気象観測

当レポートは20分前の00:30(UTC)に作成
変向風 3kt
気温 2°C
湿度 80%
気圧 1029 hPa
視程10km以上
高度4100ftの雲は散在している

METAR: LHBP 150030Z VRB03KT 9999 SCT041 02/M01 Q1029 NOSIG

時間: 01:50 (00:50 UTC)

予報

当レポートは1時間35分前の23:15(UTC)に作成
予報は15日の 00時(UTC)から 15日の 24時(UTC)まで有効
北/北西の風 4kt
視程10km以上
1,500メートル以下は雲なし、積乱雲なし
15日の 00時(UTC)から 15日の 04時(UTC)まで一時的に
高度3800ftの雲はほとんどない
15日の 09時(UTC)から 15日の 11時(UTC)まで徐々に
高度4200ftの雲は散在している
15日の 11時(UTC)から 15日の 13時(UTC)まで徐々に
高度4000ftの千切れ雲あり
15日の 19時(UTC)から 15日の 21時(UTC)まで徐々に
視程10km以上
1,500メートル以下は雲なし、積乱雲なし
15日の 19時(UTC)から 15日の 24時(UTC)まで一時的に
北東の風 7kt

TAF: LHBP 142315Z 1500/1524 34004KT CAVOK TEMPO 1500/1504 FEW038 BECMG 1509/1511 SCT042 BECMG 1511/1513 BKN040 BECMG 1519/1521 CAVOK TEMPO 1519/1524 04007KT

4,000以上の空港の気象観測と天気予報(METAR報とTAF報)

利用可能な観測所は地図上に黄色い丸と赤い丸で示す。

丸の上にカーソルを重ねると観測所名を参照できる。

次にクリックすると気象観測と天気予報を参照できる。

マップの切り替え:黒色「×」印の緑ボタンをクリックして拡大、「-」印の緑ボタンをクリックして縮小、緑色の三角印をクリックして隣りの地図に切り替え


METAR-TAF: